LFSG METAR and TAF | Updated Today

LFSG METAR

Épinal-Mirecourt Airport

Observation time: 16 min. ago

LFSG 032200Z AUTO 19017KT 9999 -SNRA BKN009/// BKN013/// BKN021/// ///TCU 01/00 Q1006

Need help? Read our tutorial on how to read METARs or read the parsed version below.

Épinal-Mirecourt Airport (LFSG) METAR

  • Weather conditions on Fri, 03 Dec 2021 22:00:00 +0000 (16 min. ago):
  • Present conditions: Light snow rain
  • Clouds: Broken sky at 274 meters; broken sky at 396 meters; broken sky at 640 meters
  • Visibility: Greater than 10 km
  • Wind: 190 degrees at 17 knots
  • Temperature: 1 celsius
  • Dew point: 0 celsius
  • Pressure: 1006 millibars
  • Remarks: None


Useful to know...